sensor_id;sensor_type;location;lat;lon;timestamp;P1;durP1;ratioP1;P2;durP2;ratioP2
50858;SDS011;36826;47.514;19.056;2022-09-29T00:02:16;2.95;;;1.75;;
50858;SDS011;36826;47.514;19.056;2022-09-29T00:04:42;2.72;;;1.60;;
50858;SDS011;36826;47.514;19.056;2022-09-29T00:07:08;2.83;;;1.90;;
50858;SDS011;36826;47.514;19.056;2022-09-29T00:09:33;2.90;;;1.90;;
50858;SDS011;36826;47.514;19.056;2022-09-29T00:11:59;2.40;;;1.60;;
50858;SDS011;36826;47.514;19.056;2022-09-29T00:14:24;3.67;;;1.80;;
50858;SDS011;36826;47.514;19.056;2022-09-29T00:16:50;2.75;;;1.50;;
50858;SDS011;36826;47.514;19.056;2022-09-29T00:19:16;2.85;;;1.70;;
50858;SDS011;36826;47.514;19.056;2022-09-29T00:21:41;2.22;;;1.70;;
50858;SDS011;36826;47.514;19.056;2022-09-29T00:24:07;4.00;;;1.77;;
50858;SDS011;36826;47.514;19.056;2022-09-29T00:26:32;2.67;;;1.58;;
50858;SDS011;36826;47.514;19.056;2022-09-29T00:28:58;3.10;;;1.77;;
50858;SDS011;36826;47.514;19.056;2022-09-29T00:31:26;3.40;;;1.90;;
50858;SDS011;36826;47.514;19.056;2022-09-29T00:33:53;3.47;;;1.75;;
50858;SDS011;36826;47.514;19.056;2022-09-29T00:36:20;3.65;;;1.75;;
50858;SDS011;36826;47.514;19.056;2022-09-29T00:38:47;3.00;;;2.00;;
50858;SDS011;36826;47.514;19.056;2022-09-29T00:41:14;2.70;;;1.77;;
50858;SDS011;36826;47.514;19.056;2022-09-29T00:54:28;2.85;;;1.73;;
50858;SDS011;36826;47.514;19.056;2022-09-29T00:57:01;2.55;;;1.52;;
50858;SDS011;36826;47.514;19.056;2022-09-29T00:59:31;3.15;;;1.90;;
50858;SDS011;36826;47.514;19.056;2022-09-29T01:02:02;3.53;;;1.80;;
50858;SDS011;36826;47.514;19.056;2022-09-29T01:04:29;3.90;;;2.10;;
50858;SDS011;36826;47.514;19.056;2022-09-29T01:06:55;2.90;;;1.80;;
50858;SDS011;36826;47.514;19.056;2022-09-29T01:09:26;4.43;;;1.85;;
50858;SDS011;36826;47.514;19.056;2022-09-29T01:11:55;3.25;;;1.88;;
50858;SDS011;36826;47.514;19.056;2022-09-29T01:14:25;3.33;;;1.75;;
50858;SDS011;36826;47.514;19.056;2022-09-29T01:16:53;4.20;;;1.80;;
50858;SDS011;36826;47.514;19.056;2022-09-29T01:22:56;2.50;;;1.60;;
50858;SDS011;36826;47.514;19.056;2022-09-29T01:39:18;3.70;;;1.90;;
50858;SDS011;36826;47.514;19.056;2022-09-29T01:44:32;5.25;;;1.67;;
50858;SDS011;36826;47.514;19.056;2022-09-29T01:49:36;3.60;;;1.95;;
50858;SDS011;36826;47.514;19.056;2022-09-29T01:52:07;3.50;;;1.90;;
50858;SDS011;36826;47.514;19.056;2022-09-29T01:54:58;5.03;;;1.90;;
50858;SDS011;36826;47.514;19.056;2022-09-29T01:57:26;3.67;;;1.88;;
50858;SDS011;36826;47.514;19.056;2022-09-29T02:00:04;4.00;;;2.00;;
50858;SDS011;36826;47.514;19.056;2022-09-29T02:02:36;6.50;;;1.80;;
50858;SDS011;36826;47.514;19.056;2022-09-29T02:05:21;6.20;;;1.90;;
50858;SDS011;36826;47.514;19.056;2022-09-29T02:07:52;3.70;;;1.83;;
50858;SDS011;36826;47.514;19.056;2022-09-29T02:10:24;3.80;;;2.03;;
50858;SDS011;36826;47.514;19.056;2022-09-29T02:12:56;7.30;;;1.90;;
50858;SDS011;36826;47.514;19.056;2022-09-29T02:15:28;3.53;;;1.90;;
50858;SDS011;36826;47.514;19.056;2022-09-29T02:17:58;4.18;;;1.55;;
50858;SDS011;36826;47.514;19.056;2022-09-29T02:20:31;9.02;;;1.98;;
50858;SDS011;36826;47.514;19.056;2022-09-29T02:22:57;3.45;;;1.80;;
50858;SDS011;36826;47.514;19.056;2022-09-29T02:25:22;3.90;;;1.90;;
50858;SDS011;36826;47.514;19.056;2022-09-29T02:27:48;2.70;;;1.65;;
50858;SDS011;36826;47.514;19.056;2022-09-29T02:30:15;4.95;;;1.70;;
50858;SDS011;36826;47.514;19.056;2022-09-29T02:32:41;3.30;;;1.60;;
50858;SDS011;36826;47.514;19.056;2022-09-29T02:35:08;4.47;;;1.60;;
50858;SDS011;36826;47.514;19.056;2022-09-29T02:37:56;3.83;;;1.70;;
50858;SDS011;36826;47.514;19.056;2022-09-29T02:57:16;3.28;;;1.50;;
50858;SDS011;36826;47.514;19.056;2022-09-29T03:02:38;3.40;;;1.85;;
50858;SDS011;36826;47.514;19.056;2022-09-29T03:05:05;2.78;;;1.58;;
50858;SDS011;36826;47.514;19.056;2022-09-29T03:07:34;2.85;;;1.55;;
50858;SDS011;36826;47.514;19.056;2022-09-29T03:10:01;4.47;;;1.52;;
50858;SDS011;36826;47.514;19.056;2022-09-29T03:12:27;2.92;;;1.70;;
50858;SDS011;36826;47.514;19.056;2022-09-29T03:14:52;2.92;;;1.52;;
50858;SDS011;36826;47.514;19.056;2022-09-29T03:17:18;3.17;;;1.40;;
50858;SDS011;36826;47.514;19.056;2022-09-29T03:19:43;2.92;;;1.50;;
50858;SDS011;36826;47.514;19.056;2022-09-29T03:22:09;4.95;;;1.60;;
50858;SDS011;36826;47.514;19.056;2022-09-29T03:24:34;5.00;;;1.50;;
50858;SDS011;36826;47.514;19.056;2022-09-29T03:27:00;3.42;;;1.35;;
50858;SDS011;36826;47.514;19.056;2022-09-29T03:29:25;2.45;;;1.27;;
50858;SDS011;36826;47.514;19.056;2022-09-29T03:31:51;2.88;;;1.60;;
50858;SDS011;36826;47.514;19.056;2022-09-29T03:34:16;5.68;;;1.80;;
50858;SDS011;36826;47.514;19.056;2022-09-29T03:36:42;2.67;;;1.92;;
50858;SDS011;36826;47.514;19.056;2022-09-29T03:39:07;3.10;;;1.50;;
50858;SDS011;36826;47.514;19.056;2022-09-29T03:41:33;2.15;;;1.35;;
50858;SDS011;36826;47.514;19.056;2022-09-29T03:43:58;3.60;;;1.42;;
50858;SDS011;36826;47.514;19.056;2022-09-29T03:46:24;2.63;;;1.48;;
50858;SDS011;36826;47.514;19.056;2022-09-29T03:48:49;2.60;;;1.70;;
50858;SDS011;36826;47.514;19.056;2022-09-29T03:51:15;2.90;;;1.70;;
50858;SDS011;36826;47.514;19.056;2022-09-29T03:53:40;2.55;;;1.70;;
50858;SDS011;36826;47.514;19.056;2022-09-29T03:56:05;3.08;;;1.60;;
50858;SDS011;36826;47.514;19.056;2022-09-29T03:58:31;2.88;;;1.45;;
50858;SDS011;36826;47.514;19.056;2022-09-29T04:00:57;2.42;;;1.48;;
50858;SDS011;36826;47.514;19.056;2022-09-29T04:03:22;2.55;;;1.65;;
50858;SDS011;36826;47.514;19.056;2022-09-29T04:05:48;3.78;;;1.70;;
50858;SDS011;36826;47.514;19.056;2022-09-29T04:08:13;2.20;;;1.50;;
50858;SDS011;36826;47.514;19.056;2022-09-29T04:10:40;2.35;;;1.50;;
50858;SDS011;36826;47.514;19.056;2022-09-29T04:13:05;2.40;;;1.35;;
50858;SDS011;36826;47.514;19.056;2022-09-29T04:15:31;3.15;;;1.40;;
50858;SDS011;36826;47.514;19.056;2022-09-29T04:17:57;2.88;;;1.50;;
50858;SDS011;36826;47.514;19.056;2022-09-29T04:20:23;2.35;;;1.45;;
50858;SDS011;36826;47.514;19.056;2022-09-29T04:22:48;2.78;;;1.30;;
50858;SDS011;36826;47.514;19.056;2022-09-29T04:25:14;5.03;;;1.70;;
50858;SDS011;36826;47.514;19.056;2022-09-29T04:27:40;2.30;;;1.50;;
50858;SDS011;36826;47.514;19.056;2022-09-29T04:30:05;2.65;;;1.50;;
50858;SDS011;36826;47.514;19.056;2022-09-29T04:32:32;2.85;;;1.60;;
50858;SDS011;36826;47.514;19.056;2022-09-29T04:34:57;2.55;;;1.50;;
50858;SDS011;36826;47.514;19.056;2022-09-29T04:37:23;2.75;;;1.52;;
50858;SDS011;36826;47.514;19.056;2022-09-29T04:39:48;2.75;;;1.50;;
50858;SDS011;36826;47.514;19.056;2022-09-29T04:42:14;4.13;;;1.58;;
50858;SDS011;36826;47.514;19.056;2022-09-29T04:44:40;3.58;;;1.90;;
50858;SDS011;36826;47.514;19.056;2022-09-29T04:47:05;2.28;;;1.48;;
50858;SDS011;36826;47.514;19.056;2022-09-29T04:49:31;2.22;;;1.20;;
50858;SDS011;36826;47.514;19.056;2022-09-29T04:51:56;3.25;;;1.55;;
50858;SDS011;36826;47.514;19.056;2022-09-29T04:54:22;2.88;;;1.50;;
50858;SDS011;36826;47.514;19.056;2022-09-29T04:56:47;2.47;;;1.80;;
50858;SDS011;36826;47.514;19.056;2022-09-29T04:59:13;2.10;;;1.23;;
50858;SDS011;36826;47.514;19.056;2022-09-29T05:01:39;1.70;;;1.25;;
50858;SDS011;36826;47.514;19.056;2022-09-29T05:04:04;1.73;;;1.27;;
50858;SDS011;36826;47.514;19.056;2022-09-29T05:06:31;4.18;;;1.55;;
50858;SDS011;36826;47.514;19.056;2022-09-29T05:08:57;2.10;;;1.38;;
50858;SDS011;36826;47.514;19.056;2022-09-29T05:11:22;2.35;;;1.38;;
50858;SDS011;36826;47.514;19.056;2022-09-29T05:13:48;2.78;;;1.73;;
50858;SDS011;36826;47.514;19.056;2022-09-29T05:16:14;2.95;;;1.90;;
50858;SDS011;36826;47.514;19.056;2022-09-29T05:18:40;2.22;;;1.60;;
50858;SDS011;36826;47.514;19.056;2022-09-29T05:21:06;2.65;;;1.35;;
50858;SDS011;36826;47.514;19.056;2022-09-29T05:23:33;2.38;;;1.60;;
50858;SDS011;36826;47.514;19.056;2022-09-29T05:26:03;6.32;;;1.70;;
50858;SDS011;36826;47.514;19.056;2022-09-29T05:28:30;2.80;;;1.50;;
50858;SDS011;36826;47.514;19.056;2022-09-29T05:31:00;13.32;;;2.17;;
50858;SDS011;36826;47.514;19.056;2022-09-29T05:33:30;3.60;;;1.40;;
50858;SDS011;36826;47.514;19.056;2022-09-29T05:35:55;5.32;;;1.77;;
50858;SDS011;36826;47.514;19.056;2022-09-29T05:38:21;6.10;;;2.20;;
50858;SDS011;36826;47.514;19.056;2022-09-29T05:40:47;13.45;;;2.05;;
50858;SDS011;36826;47.514;19.056;2022-09-29T05:43:13;5.22;;;2.00;;
50858;SDS011;36826;47.514;19.056;2022-09-29T05:45:39;5.40;;;2.20;;
50858;SDS011;36826;47.514;19.056;2022-09-29T05:48:04;4.15;;;2.10;;
50858;SDS011;36826;47.514;19.056;2022-09-29T05:50:29;9.93;;;1.88;;
50858;SDS011;36826;47.514;19.056;2022-09-29T05:53:00;5.90;;;2.08;;
50858;SDS011;36826;47.514;19.056;2022-09-29T05:55:27;3.33;;;1.70;;
50858;SDS011;36826;47.514;19.056;2022-09-29T05:57:52;12.48;;;1.90;;
50858;SDS011;36826;47.514;19.056;2022-09-29T06:00:17;21.80;;;10.02;;
50858;SDS011;36826;47.514;19.056;2022-09-29T06:02:43;7.22;;;4.00;;
50858;SDS011;36826;47.514;19.056;2022-09-29T06:05:08;13.65;;;6.45;;
50858;SDS011;36826;47.514;19.056;2022-09-29T06:07:34;13.02;;;6.57;;
50858;SDS011;36826;47.514;19.056;2022-09-29T06:09:59;237.25;;;97.75;;
50858;SDS011;36826;47.514;19.056;2022-09-29T06:12:25;92.93;;;40.15;;
50858;SDS011;36826;47.514;19.056;2022-09-29T06:14:50;81.60;;;35.25;;
50858;SDS011;36826;47.514;19.056;2022-09-29T06:17:16;92.90;;;40.30;;
50858;SDS011;36826;47.514;19.056;2022-09-29T06:19:41;97.45;;;41.67;;
50858;SDS011;36826;47.514;19.056;2022-09-29T06:22:07;102.45;;;42.05;;
50858;SDS011;36826;47.514;19.056;2022-09-29T06:24:32;101.32;;;40.40;;
50858;SDS011;36826;47.514;19.056;2022-09-29T06:26:57;85.10;;;36.40;;
50858;SDS011;36826;47.514;19.056;2022-09-29T06:29:23;85.75;;;37.38;;
50858;SDS011;36826;47.514;19.056;2022-09-29T06:31:48;75.78;;;30.42;;
50858;SDS011;36826;47.514;19.056;2022-09-29T06:34:14;74.00;;;32.55;;
50858;SDS011;36826;47.514;19.056;2022-09-29T06:36:42;66.32;;;31.15;;
50858;SDS011;36826;47.514;19.056;2022-09-29T06:39:47;64.30;;;28.27;;
50858;SDS011;36826;47.514;19.056;2022-09-29T06:42:12;58.92;;;25.98;;
50858;SDS011;36826;47.514;19.056;2022-09-29T06:44:38;55.80;;;24.23;;
50858;SDS011;36826;47.514;19.056;2022-09-29T06:47:03;48.25;;;22.85;;
50858;SDS011;36826;47.514;19.056;2022-09-29T06:49:29;48.17;;;23.42;;
50858;SDS011;36826;47.514;19.056;2022-09-29T06:51:54;41.42;;;19.00;;
50858;SDS011;36826;47.514;19.056;2022-09-29T06:54:20;46.17;;;20.25;;
50858;SDS011;36826;47.514;19.056;2022-09-29T06:56:49;47.00;;;20.75;;
50858;SDS011;36826;47.514;19.056;2022-09-29T06:59:16;38.15;;;19.15;;
50858;SDS011;36826;47.514;19.056;2022-09-29T07:01:41;46.63;;;20.52;;
50858;SDS011;36826;47.514;19.056;2022-09-29T07:04:07;50.35;;;21.38;;
50858;SDS011;36826;47.514;19.056;2022-09-29T07:06:32;45.63;;;20.60;;
50858;SDS011;36826;47.514;19.056;2022-09-29T07:08:59;44.40;;;19.63;;
50858;SDS011;36826;47.514;19.056;2022-09-29T07:11:25;40.92;;;18.38;;
50858;SDS011;36826;47.514;19.056;2022-09-29T07:13:51;37.00;;;18.08;;
50858;SDS011;36826;47.514;19.056;2022-09-29T07:16:17;35.92;;;19.40;;
50858;SDS011;36826;47.514;19.056;2022-09-29T07:18:43;39.63;;;18.23;;
50858;SDS011;36826;47.514;19.056;2022-09-29T07:21:11;40.50;;;18.27;;
50858;SDS011;36826;47.514;19.056;2022-09-29T07:23:40;32.53;;;16.88;;
50858;SDS011;36826;47.514;19.056;2022-09-29T07:26:06;40.53;;;17.92;;
50858;SDS011;36826;47.514;19.056;2022-09-29T07:28:32;34.72;;;16.73;;
50858;SDS011;36826;47.514;19.056;2022-09-29T07:31:02;32.40;;;16.08;;
50858;SDS011;36826;47.514;19.056;2022-09-29T07:33:32;32.40;;;15.85;;
50858;SDS011;36826;47.514;19.056;2022-09-29T07:35:58;31.00;;;14.43;;
50858;SDS011;36826;47.514;19.056;2022-09-29T07:38:27;30.67;;;15.10;;
50858;SDS011;36826;47.514;19.056;2022-09-29T07:40:54;28.20;;;14.40;;
50858;SDS011;36826;47.514;19.056;2022-09-29T07:43:23;28.55;;;13.95;;
50858;SDS011;36826;47.514;19.056;2022-09-29T07:45:49;26.40;;;13.57;;
50858;SDS011;36826;47.514;19.056;2022-09-29T07:48:16;28.15;;;13.45;;
50858;SDS011;36826;47.514;19.056;2022-09-29T07:50:42;22.13;;;10.63;;
50858;SDS011;36826;47.514;19.056;2022-09-29T07:53:10;25.50;;;11.82;;
50858;SDS011;36826;47.514;19.056;2022-09-29T07:55:36;20.13;;;10.57;;
50858;SDS011;36826;47.514;19.056;2022-09-29T07:58:02;22.23;;;10.23;;
50858;SDS011;36826;47.514;19.056;2022-09-29T08:00:28;20.58;;;9.25;;
50858;SDS011;36826;47.514;19.056;2022-09-29T08:03:00;21.45;;;8.52;;
50858;SDS011;36826;47.514;19.056;2022-09-29T08:05:31;20.55;;;10.18;;
50858;SDS011;36826;47.514;19.056;2022-09-29T08:08:01;18.98;;;8.63;;
50858;SDS011;36826;47.514;19.056;2022-09-29T08:10:28;18.70;;;8.13;;
50858;SDS011;36826;47.514;19.056;2022-09-29T08:12:55;17.13;;;7.63;;
50858;SDS011;36826;47.514;19.056;2022-09-29T08:15:20;18.63;;;8.05;;
50858;SDS011;36826;47.514;19.056;2022-09-29T08:17:46;18.05;;;8.05;;
50858;SDS011;36826;47.514;19.056;2022-09-29T08:20:12;17.92;;;8.75;;
50858;SDS011;36826;47.514;19.056;2022-09-29T08:22:38;15.05;;;8.88;;
50858;SDS011;36826;47.514;19.056;2022-09-29T08:25:03;16.13;;;8.70;;
50858;SDS011;36826;47.514;19.056;2022-09-29T08:27:29;14.85;;;8.18;;
50858;SDS011;36826;47.514;19.056;2022-09-29T08:29:54;15.02;;;7.32;;
50858;SDS011;36826;47.514;19.056;2022-09-29T08:32:21;19.85;;;10.18;;
50858;SDS011;36826;47.514;19.056;2022-09-29T08:34:47;14.70;;;9.10;;
50858;SDS011;36826;47.514;19.056;2022-09-29T08:37:12;18.30;;;11.15;;
50858;SDS011;36826;47.514;19.056;2022-09-29T08:39:38;20.83;;;11.65;;
50858;SDS011;36826;47.514;19.056;2022-09-29T08:44:57;18.85;;;12.10;;
50858;SDS011;36826;47.514;19.056;2022-09-29T08:50:05;16.90;;;11.55;;
50858;SDS011;36826;47.514;19.056;2022-09-29T08:52:47;17.77;;;11.13;;
50858;SDS011;36826;47.514;19.056;2022-09-29T08:57:47;18.20;;;12.32;;
50858;SDS011;36826;47.514;19.056;2022-09-29T09:03:18;20.60;;;11.80;;
50858;SDS011;36826;47.514;19.056;2022-09-29T09:20:32;16.90;;;10.02;;
50858;SDS011;36826;47.514;19.056;2022-09-29T09:26:10;13.77;;;8.55;;
50858;SDS011;36826;47.514;19.056;2022-09-29T09:28:54;10.57;;;7.07;;
50858;SDS011;36826;47.514;19.056;2022-09-29T09:31:26;12.77;;;6.07;;
50858;SDS011;36826;47.514;19.056;2022-09-29T09:34:06;10.98;;;6.10;;
50858;SDS011;36826;47.514;19.056;2022-09-29T09:39:28;8.10;;;5.20;;
50858;SDS011;36826;47.514;19.056;2022-09-29T09:42:00;12.75;;;7.00;;
50858;SDS011;36826;47.514;19.056;2022-09-29T09:44:33;12.70;;;7.22;;
50858;SDS011;36826;47.514;19.056;2022-09-29T09:49:48;10.80;;;6.35;;
50858;SDS011;36826;47.514;19.056;2022-09-29T09:52:21;10.45;;;6.20;;
50858;SDS011;36826;47.514;19.056;2022-09-29T09:54:50;11.57;;;6.20;;
50858;SDS011;36826;47.514;19.056;2022-09-29T10:02:54;9.15;;;5.55;;
50858;SDS011;36826;47.514;19.056;2022-09-29T10:05:22;9.73;;;5.65;;
50858;SDS011;36826;47.514;19.056;2022-09-29T10:07:54;9.93;;;5.35;;
50858;SDS011;36826;47.514;19.056;2022-09-29T10:10:24;10.30;;;5.50;;
50858;SDS011;36826;47.514;19.056;2022-09-29T10:12:57;8.07;;;5.03;;
50858;SDS011;36826;47.514;19.056;2022-09-29T10:18:06;11.52;;;5.10;;
50858;SDS011;36826;47.514;19.056;2022-09-29T10:20:38;8.90;;;4.85;;
50858;SDS011;36826;47.514;19.056;2022-09-29T10:25:40;12.13;;;4.75;;
50858;SDS011;36826;47.514;19.056;2022-09-29T10:28:16;9.73;;;4.70;;
50858;SDS011;36826;47.514;19.056;2022-09-29T10:30:42;11.85;;;4.75;;
50858;SDS011;36826;47.514;19.056;2022-09-29T10:33:12;8.65;;;4.72;;
50858;SDS011;36826;47.514;19.056;2022-09-29T10:35:41;10.15;;;4.53;;
50858;SDS011;36826;47.514;19.056;2022-09-29T10:38:24;10.65;;;4.05;;
50858;SDS011;36826;47.514;19.056;2022-09-29T10:40:58;7.63;;;4.18;;
50858;SDS011;36826;47.514;19.056;2022-09-29T10:43:36;7.60;;;3.75;;
50858;SDS011;36826;47.514;19.056;2022-09-29T10:46:03;11.25;;;4.35;;
50858;SDS011;36826;47.514;19.056;2022-09-29T10:48:30;10.77;;;4.50;;
50858;SDS011;36826;47.514;19.056;2022-09-29T10:51:00;9.63;;;3.97;;
50858;SDS011;36826;47.514;19.056;2022-09-29T10:53:30;9.43;;;3.75;;
50858;SDS011;36826;47.514;19.056;2022-09-29T10:55:57;12.95;;;4.20;;
50858;SDS011;36826;47.514;19.056;2022-09-29T11:01:15;8.07;;;3.80;;
50858;SDS011;36826;47.514;19.056;2022-09-29T11:03:51;10.17;;;3.53;;
50858;SDS011;36826;47.514;19.056;2022-09-29T11:06:29;9.27;;;3.70;;
50858;SDS011;36826;47.514;19.056;2022-09-29T11:11:28;6.47;;;2.85;;
50858;SDS011;36826;47.514;19.056;2022-09-29T11:13:55;7.97;;;3.05;;
50858;SDS011;36826;47.514;19.056;2022-09-29T11:19:02;9.13;;;3.60;;
50858;SDS011;36826;47.514;19.056;2022-09-29T11:24:24;10.73;;;3.33;;
50858;SDS011;36826;47.514;19.056;2022-09-29T11:46:38;6.72;;;2.88;;
50858;SDS011;36826;47.514;19.056;2022-09-29T11:52:00;4.78;;;2.65;;
50858;SDS011;36826;47.514;19.056;2022-09-29T11:57:00;4.07;;;2.40;;
50858;SDS011;36826;47.514;19.056;2022-09-29T12:05:20;3.65;;;1.90;;
50858;SDS011;36826;47.514;19.056;2022-09-29T12:13:29;5.55;;;2.30;;
50858;SDS011;36826;47.514;19.056;2022-09-29T12:16:37;9.90;;;2.15;;
50858;SDS011;36826;47.514;19.056;2022-09-29T12:19:08;5.03;;;1.95;;
50858;SDS011;36826;47.514;19.056;2022-09-29T12:21:39;8.32;;;1.95;;
50858;SDS011;36826;47.514;19.056;2022-09-29T12:24:13;6.75;;;2.00;;
50858;SDS011;36826;47.514;19.056;2022-09-29T12:26:44;5.03;;;1.83;;
50858;SDS011;36826;47.514;19.056;2022-09-29T12:32:15;7.07;;;2.30;;
50858;SDS011;36826;47.514;19.056;2022-09-29T12:34:50;4.35;;;2.00;;
50858;SDS011;36826;47.514;19.056;2022-09-29T12:37:31;4.78;;;2.42;;
50858;SDS011;36826;47.514;19.056;2022-09-29T12:40:05;5.38;;;2.15;;
50858;SDS011;36826;47.514;19.056;2022-09-29T12:45:13;5.45;;;2.10;;
50858;SDS011;36826;47.514;19.056;2022-09-29T12:55:30;5.70;;;1.63;;
50858;SDS011;36826;47.514;19.056;2022-09-29T12:58:37;9.07;;;2.35;;
50858;SDS011;36826;47.514;19.056;2022-09-29T13:01:17;14.10;;;3.28;;
50858;SDS011;36826;47.514;19.056;2022-09-29T13:10:04;10.13;;;3.70;;
50858;SDS011;36826;47.514;19.056;2022-09-29T13:12:41;11.93;;;3.40;;
50858;SDS011;36826;47.514;19.056;2022-09-29T13:15:33;11.77;;;3.40;;
50858;SDS011;36826;47.514;19.056;2022-09-29T13:29:21;14.90;;;2.90;;
50858;SDS011;36826;47.514;19.056;2022-09-29T13:31:50;10.57;;;2.50;;
50858;SDS011;36826;47.514;19.056;2022-09-29T13:34:31;11.93;;;2.63;;
50858;SDS011;36826;47.514;19.056;2022-09-29T13:37:20;13.55;;;2.75;;
50858;SDS011;36826;47.514;19.056;2022-09-29T13:39:57;11.88;;;2.20;;
50858;SDS011;36826;47.514;19.056;2022-09-29T13:42:38;14.35;;;2.85;;
50858;SDS011;36826;47.514;19.056;2022-09-29T13:47:52;14.85;;;4.68;;
50858;SDS011;36826;47.514;19.056;2022-09-29T13:58:21;15.93;;;4.68;;
50858;SDS011;36826;47.514;19.056;2022-09-29T14:00:49;8.93;;;2.70;;
50858;SDS011;36826;47.514;19.056;2022-09-29T14:06:14;10.85;;;2.80;;
50858;SDS011;36826;47.514;19.056;2022-09-29T14:08:50;9.27;;;2.75;;
50858;SDS011;36826;47.514;19.056;2022-09-29T14:16:44;8.95;;;2.25;;
50858;SDS011;36826;47.514;19.056;2022-09-29T14:22:00;6.90;;;2.28;;
50858;SDS011;36826;47.514;19.056;2022-09-29T14:35:12;9.48;;;2.42;;
50858;SDS011;36826;47.514;19.056;2022-09-29T14:38:01;8.65;;;2.25;;
50858;SDS011;36826;47.514;19.056;2022-09-29T14:58:50;6.93;;;1.50;;
50858;SDS011;36826;47.514;19.056;2022-09-29T15:01:31;3.40;;;1.25;;
50858;SDS011;36826;47.514;19.056;2022-09-29T15:04:10;4.90;;;1.20;;
50858;SDS011;36826;47.514;19.056;2022-09-29T15:06:46;5.40;;;1.48;;
50858;SDS011;36826;47.514;19.056;2022-09-29T15:09:18;4.50;;;1.33;;
50858;SDS011;36826;47.514;19.056;2022-09-29T15:11:55;4.35;;;1.30;;
50858;SDS011;36826;47.514;19.056;2022-09-29T15:14:29;4.57;;;1.15;;
50858;SDS011;36826;47.514;19.056;2022-09-29T15:25:29;5.15;;;1.83;;
50858;SDS011;36826;47.514;19.056;2022-09-29T15:27:59;3.65;;;1.27;;
50858;SDS011;36826;47.514;19.056;2022-09-29T15:30:27;4.13;;;1.13;;
50858;SDS011;36826;47.514;19.056;2022-09-29T15:33:02;3.03;;;1.10;;
50858;SDS011;36826;47.514;19.056;2022-09-29T15:35:35;3.13;;;1.02;;
50858;SDS011;36826;47.514;19.056;2022-09-29T15:40:33;3.58;;;1.00;;
50858;SDS011;36826;47.514;19.056;2022-09-29T15:43:01;4.47;;;0.80;;
50858;SDS011;36826;47.514;19.056;2022-09-29T15:45:27;4.40;;;0.80;;
50858;SDS011;36826;47.514;19.056;2022-09-29T15:47:59;5.85;;;0.85;;
50858;SDS011;36826;47.514;19.056;2022-09-29T15:50:28;5.53;;;0.77;;
50858;SDS011;36826;47.514;19.056;2022-09-29T15:52:57;2.83;;;0.80;;
50858;SDS011;36826;47.514;19.056;2022-09-29T15:55:27;4.60;;;1.00;;
50858;SDS011;36826;47.514;19.056;2022-09-29T15:57:56;2.50;;;0.65;;
50858;SDS011;36826;47.514;19.056;2022-09-29T16:02:49;2.65;;;0.50;;
50858;SDS011;36826;47.514;19.056;2022-09-29T16:05:34;3.80;;;0.55;;
50858;SDS011;36826;47.514;19.056;2022-09-29T16:08:05;2.25;;;0.40;;
50858;SDS011;36826;47.514;19.056;2022-09-29T16:10:51;2.78;;;0.40;;
50858;SDS011;36826;47.514;19.056;2022-09-29T16:13:23;4.57;;;0.60;;
50858;SDS011;36826;47.514;19.056;2022-09-29T16:15:53;2.35;;;0.77;;
50858;SDS011;36826;47.514;19.056;2022-09-29T16:18:24;3.35;;;0.40;;
50858;SDS011;36826;47.514;19.056;2022-09-29T16:20:53;4.75;;;0.60;;
50858;SDS011;36826;47.514;19.056;2022-09-29T16:28:32;1.55;;;0.60;;
50858;SDS011;36826;47.514;19.056;2022-09-29T16:31:04;2.78;;;0.60;;
50858;SDS011;36826;47.514;19.056;2022-09-29T16:33:34;1.55;;;0.30;;
50858;SDS011;36826;47.514;19.056;2022-09-29T16:39:01;1.85;;;0.50;;
50858;SDS011;36826;47.514;19.056;2022-09-29T16:44:03;2.75;;;0.47;;
50858;SDS011;36826;47.514;19.056;2022-09-29T16:46:41;2.08;;;0.60;;
50858;SDS011;36826;47.514;19.056;2022-09-29T16:49:24;2.58;;;0.50;;
50858;SDS011;36826;47.514;19.056;2022-09-29T16:51:55;2.42;;;0.52;;
50858;SDS011;36826;47.514;19.056;2022-09-29T16:54:24;1.50;;;0.40;;
50858;SDS011;36826;47.514;19.056;2022-09-29T16:59:49;2.67;;;0.70;;
50858;SDS011;36826;47.514;19.056;2022-09-29T17:02:19;1.40;;;0.70;;
50858;SDS011;36826;47.514;19.056;2022-09-29T17:04:46;3.22;;;0.65;;
50858;SDS011;36826;47.514;19.056;2022-09-29T17:07:13;4.10;;;0.73;;
50858;SDS011;36826;47.514;19.056;2022-09-29T17:09:42;2.55;;;0.60;;
50858;SDS011;36826;47.514;19.056;2022-09-29T17:12:13;2.08;;;0.60;;
50858;SDS011;36826;47.514;19.056;2022-09-29T17:14:40;7.55;;;1.10;;
50858;SDS011;36826;47.514;19.056;2022-09-29T17:17:08;1.83;;;0.88;;
50858;SDS011;36826;47.514;19.056;2022-09-29T17:19:39;5.05;;;0.88;;
50858;SDS011;36826;47.514;19.056;2022-09-29T17:22:09;6.20;;;0.90;;
50858;SDS011;36826;47.514;19.056;2022-09-29T17:24:49;4.45;;;0.85;;
50858;SDS011;36826;47.514;19.056;2022-09-29T17:27:14;4.85;;;0.80;;
50858;SDS011;36826;47.514;19.056;2022-09-29T17:29:59;4.22;;;0.70;;
50858;SDS011;36826;47.514;19.056;2022-09-29T17:32:24;6.35;;;0.70;;
50858;SDS011;36826;47.514;19.056;2022-09-29T17:34:51;10.32;;;0.73;;
50858;SDS011;36826;47.514;19.056;2022-09-29T17:37:16;5.95;;;0.68;;
50858;SDS011;36826;47.514;19.056;2022-09-29T17:39:43;12.35;;;1.00;;
50858;SDS011;36826;47.514;19.056;2022-09-29T17:42:09;8.15;;;1.00;;
50858;SDS011;36826;47.514;19.056;2022-09-29T17:44:35;5.50;;;0.82;;
50858;SDS011;36826;47.514;19.056;2022-09-29T17:49:28;7.10;;;0.98;;
50858;SDS011;36826;47.514;19.056;2022-09-29T17:51:54;7.65;;;1.05;;
50858;SDS011;36826;47.514;19.056;2022-09-29T17:54:19;9.38;;;1.20;;
50858;SDS011;36826;47.514;19.056;2022-09-29T17:56:50;6.38;;;0.90;;
50858;SDS011;36826;47.514;19.056;2022-09-29T17:59:16;3.97;;;0.82;;
50858;SDS011;36826;47.514;19.056;2022-09-29T18:01:41;5.15;;;0.82;;
50858;SDS011;36826;47.514;19.056;2022-09-29T18:04:07;6.20;;;1.00;;
50858;SDS011;36826;47.514;19.056;2022-09-29T18:06:32;3.05;;;0.80;;
50858;SDS011;36826;47.514;19.056;2022-09-29T18:09:02;4.20;;;0.75;;
50858;SDS011;36826;47.514;19.056;2022-09-29T18:11:37;10.45;;;0.90;;
50858;SDS011;36826;47.514;19.056;2022-09-29T18:14:02;4.25;;;0.70;;
50858;SDS011;36826;47.514;19.056;2022-09-29T18:16:28;11.05;;;1.15;;
50858;SDS011;36826;47.514;19.056;2022-09-29T18:18:53;15.55;;;1.30;;
50858;SDS011;36826;47.514;19.056;2022-09-29T18:21:22;10.93;;;4.13;;
50858;SDS011;36826;47.514;19.056;2022-09-29T18:23:48;23.35;;;3.95;;
50858;SDS011;36826;47.514;19.056;2022-09-29T18:26:13;15.07;;;4.97;;
50858;SDS011;36826;47.514;19.056;2022-09-29T18:28:39;19.60;;;5.57;;
50858;SDS011;36826;47.514;19.056;2022-09-29T18:31:06;18.25;;;6.65;;
50858;SDS011;36826;47.514;19.056;2022-09-29T18:33:42;14.90;;;7.85;;
50858;SDS011;36826;47.514;19.056;2022-09-29T18:36:08;15.38;;;6.97;;
50858;SDS011;36826;47.514;19.056;2022-09-29T18:38:35;17.02;;;6.45;;
50858;SDS011;36826;47.514;19.056;2022-09-29T18:41:00;11.85;;;5.85;;
50858;SDS011;36826;47.514;19.056;2022-09-29T18:43:26;16.30;;;6.30;;
50858;SDS011;36826;47.514;19.056;2022-09-29T18:45:54;16.42;;;5.15;;
50858;SDS011;36826;47.514;19.056;2022-09-29T18:48:20;11.18;;;5.40;;
50858;SDS011;36826;47.514;19.056;2022-09-29T18:50:46;14.57;;;5.40;;
50858;SDS011;36826;47.514;19.056;2022-09-29T18:55:41;14.80;;;4.70;;
50858;SDS011;36826;47.514;19.056;2022-09-29T18:58:14;17.92;;;4.75;;
50858;SDS011;36826;47.514;19.056;2022-09-29T19:00:44;12.30;;;4.35;;